Time;durP1;ratioP1;P1;durP2;ratioP2;P2;SDS_P1;SDS_P2;PMS_P1;PMS_P2;Temp;Humidity;BMP_temperature;BMP_pressure;BME280_temperature;BME280_humidity;BME280_pressure;Samples;Min_cycle;Max_cycle;Signal;HPM_P1;HPM_P2
2021/01/07 00:03:40;;;;;;;14.30;12.02;;;;;;;4.43;66.67;99909.97;10343383;28;20095;-70
2021/01/07 00:08:42;;;;;;;17.10;12.85;;;;;;;4.53;66.46;99918.97;10340099;28;20172;-71
2021/01/07 00:13:44;;;;;;;17.35;13.15;;;;;;;4.62;66.10;99914.09;10344370;28;20133;-71
2021/01/07 00:18:45;;;;;;;16.33;12.88;;;;;;;4.62;65.28;99929.91;10340486;28;20092;-71
2021/01/07 00:23:46;;;;;;;16.45;12.65;;;;;;;4.46;66.07;99917.69;10331927;28;20443;-72
2021/01/07 00:28:48;;;;;;;17.85;13.27;;;;;;;4.16;65.96;99923.84;10336472;28;20045;-70
2021/01/07 00:33:49;;;;;;;16.48;14.20;;;;;;;4.31;66.02;99915.94;10331352;28;20535;-71
2021/01/07 00:38:51;;;;;;;15.95;13.40;;;;;;;4.00;66.81;99925.69;10363075;28;20052;-71
2021/01/07 00:43:52;;;;;;;16.38;13.73;;;;;;;4.02;66.32;99921.16;10330836;28;20112;-71
2021/01/07 00:48:54;;;;;;;15.63;11.98;;;;;;;4.02;65.93;99927.28;10345181;28;20154;-71
2021/01/07 00:53:55;;;;;;;15.85;12.75;;;;;;;4.27;65.81;99932.91;10337408;28;20096;-70
2021/01/07 00:58:56;;;;;;;15.00;12.80;;;;;;;4.23;65.80;99935.72;10364484;28;20085;-71
2021/01/07 01:03:58;;;;;;;17.30;13.18;;;;;;;4.19;65.67;99934.19;10343684;28;20050;-70
2021/01/07 01:08:59;;;;;;;15.98;13.45;;;;;;;4.13;66.00;99929.28;10347439;28;20568;-71
2021/01/07 01:14:01;;;;;;;16.88;13.80;;;;;;;4.18;65.92;99936.91;10351006;28;20563;-71
2021/01/07 01:19:04;;;;;;;15.40;12.52;;;;;;;4.28;65.89;99942.47;10345611;28;20104;-71
2021/01/07 01:24:06;;;;;;;16.98;13.23;;;;;;;4.30;64.08;99941.47;10345696;28;20081;-72
2021/01/07 01:29:07;;;;;;;17.77;12.75;;;;;;;4.13;65.82;99947.72;10344581;28;20121;-71
2021/01/07 01:34:08;;;;;;;18.52;14.93;;;;;;;4.36;65.06;99941.09;10349637;28;20096;-70
2021/01/07 01:39:10;;;;;;;16.83;13.48;;;;;;;4.29;64.63;99937.13;10336992;28;20046;-71
2021/01/07 01:44:13;;;;;;;20.33;14.02;;;;;;;4.25;65.04;99938.25;10363058;28;20074;-70
2021/01/07 01:49:15;;;;;;;19.42;14.77;;;;;;;4.39;64.69;99945.34;10385907;28;21537;-72
2021/01/07 01:54:16;;;;;;;16.60;13.63;;;;;;;4.39;64.23;99940.06;10381580;28;20439;-70
2021/01/07 01:59:21;;;;;;;14.55;11.55;;;;;;;4.45;63.88;99949.41;10360024;28;20108;-70
2021/01/07 02:04:22;;;;;;;12.48;9.02;;;;;;;4.27;62.10;99948.72;10343851;28;20567;-71
2021/01/07 02:09:24;;;;;;;10.13;8.68;;;;;;;4.14;61.09;99948.56;10360597;28;20566;-69
2021/01/07 02:14:26;;;;;;;11.90;9.32;;;;;;;3.88;62.72;99949.13;10343564;28;20073;-71
2021/01/07 02:19:27;;;;;;;13.00;9.50;;;;;;;4.11;61.81;99941.69;10347281;28;20062;-70
2021/01/07 02:24:30;;;;;;;11.75;10.05;;;;;;;4.17;61.94;99943.94;10343885;28;20104;-74
2021/01/07 02:29:31;;;;;;;11.07;9.48;;;;;;;4.23;61.52;99925.19;10357820;28;20113;-72
2021/01/07 02:34:33;;;;;;;9.63;8.63;;;;;;;4.05;62.12;99935.00;10343059;28;20115;-72
2021/01/07 02:39:34;;;;;;;11.10;9.13;;;;;;;4.25;61.44;99936.47;10342829;28;20046;-70
2021/01/07 02:44:35;;;;;;;11.65;9.77;;;;;;;4.26;61.33;99924.13;10338528;28;20159;-70
2021/01/07 02:49:39;;;;;;;12.50;10.80;;;;;;;4.32;62.02;99922.91;10341288;28;20081;-70
2021/01/07 02:54:41;;;;;;;16.33;11.65;;;;;;;4.40;61.07;99920.69;10337083;28;20133;-70
2021/01/07 02:59:42;;;;;;;14.45;12.30;;;;;;;4.47;62.45;99926.41;10355582;28;20054;-70
2021/01/07 03:04:43;;;;;;;16.33;12.90;;;;;;;4.35;62.67;99922.72;10347845;28;20073;-70
2021/01/07 03:09:47;;;;;;;19.88;14.02;;;;;;;4.47;62.45;99922.00;10343544;28;20133;-70
2021/01/07 03:14:49;;;;;;;18.35;13.88;;;;;;;4.43;63.05;99929.25;10345257;28;20463;-70
2021/01/07 03:19:50;;;;;;;16.63;13.70;;;;;;;4.19;62.24;99918.38;10348108;28;20160;-70
2021/01/07 03:24:52;;;;;;;17.30;13.90;;;;;;;4.18;62.39;99910.56;10336637;28;20042;-70
2021/01/07 03:29:53;;;;;;;15.50;12.52;;;;;;;3.95;63.16;99901.38;10352187;28;20142;-70
2021/01/07 03:34:54;;;;;;;17.35;13.60;;;;;;;4.11;62.85;99902.16;10342498;28;20293;-70
2021/01/07 03:39:55;;;;;;;14.15;11.75;;;;;;;4.18;62.44;99895.59;10339827;28;20100;-70
2021/01/07 03:44:56;;;;;;;15.07;12.10;;;;;;;3.91;62.98;99889.34;10344550;28;20299;-71
2021/01/07 03:49:58;;;;;;;15.85;12.20;;;;;;;3.94;63.14;99891.81;10378954;28;20049;-71
2021/01/07 03:54:59;;;;;;;13.00;11.00;;;;;;;3.94;62.41;99897.06;10360034;28;20119;-70
2021/01/07 04:00:00;;;;;;;12.57;10.05;;;;;;;3.88;62.41;99893.84;10359697;28;20721;-70
2021/01/07 04:05:02;;;;;;;13.48;11.52;;;;;;;3.96;62.23;99908.34;10347569;28;20634;-70
2021/01/07 04:10:06;;;;;;;11.85;9.70;;;;;;;3.79;62.69;99894.38;10377987;28;20058;-71
2021/01/07 04:15:07;;;;;;;11.63;9.75;;;;;;;3.78;62.12;99903.22;10377410;28;20057;-70
2021/01/07 04:20:09;;;;;;;12.55;9.80;;;;;;;3.75;62.13;99900.75;10379799;28;20048;-72
2021/01/07 04:25:11;;;;;;;12.35;9.13;;;;;;;3.83;62.72;99903.81;10349772;28;20077;-70
2021/01/07 04:30:13;;;;;;;13.25;10.52;;;;;;;3.83;62.39;99906.44;10340925;28;20122;-70
2021/01/07 04:35:14;;;;;;;13.00;9.95;;;;;;;3.66;62.45;99904.78;10344280;28;20530;-70
2021/01/07 04:40:16;;;;;;;12.38;10.57;;;;;;;3.66;63.22;99899.53;10346391;28;20064;-70
2021/01/07 04:45:17;;;;;;;13.23;11.10;;;;;;;3.77;62.99;99896.25;10342793;28;20704;-70
2021/01/07 04:50:19;;;;;;;13.90;11.18;;;;;;;3.78;62.62;99892.66;10330270;28;20047;-70
2021/01/07 04:55:21;;;;;;;15.65;12.32;;;;;;;3.76;62.74;99889.28;10349353;28;20168;-70
2021/01/07 05:00:23;;;;;;;15.95;12.10;;;;;;;3.88;62.77;99898.25;10347013;28;20108;-70
2021/01/07 05:05:24;;;;;;;15.65;11.98;;;;;;;3.67;63.03;99879.31;10351673;28;20092;-70
2021/01/07 05:10:25;;;;;;;14.15;10.75;;;;;;;3.63;62.80;99877.78;10350903;28;20042;-70
2021/01/07 05:15:38;;;;;;;16.42;11.65;;;;;;;3.70;63.13;99879.13;10361077;28;20061;-71
2021/01/07 05:20:40;;;;;;;14.30;11.18;;;;;;;3.82;62.95;99888.94;10350431;28;20411;-70
2021/01/07 05:25:44;;;;;;;14.85;11.45;;;;;;;3.84;62.28;99886.22;10355197;28;20155;-74
2021/01/07 05:30:46;;;;;;;15.73;10.90;;;;;;;3.72;62.88;99877.22;10358788;28;20135;-70
2021/01/07 05:35:47;;;;;;;14.02;10.98;;;;;;;3.65;62.70;99881.19;10350053;28;20289;-72
2021/01/07 05:40:49;;;;;;;15.43;11.10;;;;;;;3.63;63.32;99883.88;10345969;28;20062;-71
2021/01/07 05:45:57;;;;;;;13.55;10.25;;;;;;;3.67;63.60;99879.31;10345370;28;20042;-71
2021/01/07 05:51:03;;;;;;;14.77;11.57;;;;;;;3.62;63.32;99887.47;10355899;28;20064;-70
2021/01/07 05:56:06;;;;;;;15.20;11.45;;;;;;;3.59;63.79;99886.78;10392713;28;20049;-72
2021/01/07 06:01:08;;;;;;;15.05;11.00;;;;;;;3.60;63.72;99884.06;10367477;28;20034;-71
2021/01/07 06:06:10;;;;;;;14.85;11.88;;;;;;;3.56;63.56;99886.94;10354700;28;20053;-71
2021/01/07 06:11:14;;;;;;;16.63;12.63;;;;;;;3.68;63.76;99886.28;10330359;28;20053;-71
2021/01/07 06:16:18;;;;;;;17.65;12.05;;;;;;;3.81;63.66;99876.69;10341150;28;20528;-70
2021/01/07 06:21:24;;;;;;;15.10;11.63;;;;;;;3.74;63.90;99885.91;10349487;28;20184;-71
2021/01/07 06:26:28;;;;;;;14.40;11.48;;;;;;;3.66;63.04;99882.84;10353406;28;20053;-71
2021/01/07 06:31:40;;;;;;;17.42;13.15;;;;;;;3.69;64.11;99883.53;10366548;28;20060;-72
2021/01/07 06:36:45;;;;;;;19.70;13.88;;;;;;;3.50;65.46;99891.66;10344717;28;20057;-71
2021/01/07 06:41:57;;;;;;;19.60;14.13;;;;;;;3.52;66.50;99892.41;10349153;28;20046;-72
2021/01/07 06:46:58;;;;;;;19.77;15.38;;;;;;;3.52;66.80;99886.28;10368718;28;20037;-71
2021/01/07 06:52:02;;;;;;;20.95;14.23;;;;;;;3.53;66.83;99880.94;10363065;28;20038;-70
2021/01/07 06:57:07;;;;;;;21.67;14.65;;;;;;;3.51;67.43;99880.19;10344239;28;20053;-70
2021/01/07 07:02:11;;;;;;;21.38;16.58;;;;;;;3.60;67.14;99888.47;10345291;28;20062;-70
2021/01/07 07:07:33;;;;;;;17.73;12.33;;;;;;;3.74;66.98;99891.19;10348263;28;20046;-71
2021/01/07 07:12:39;;;;;;;25.33;16.30;;;;;;;3.70;67.30;99884.38;10342784;28;20056;-70
2021/01/07 07:17:48;;;;;;;21.83;16.70;;;;;;;3.85;67.33;99894.03;10351883;28;20050;-70
2021/01/07 07:22:51;;;;;;;20.83;15.57;;;;;;;3.79;66.91;99889.13;10369585;28;20524;-70
2021/01/07 07:27:53;;;;;;;20.42;15.93;;;;;;;3.71;67.16;99889.56;10348528;28;20107;-70
2021/01/07 07:32:56;;;;;;;18.38;14.18;;;;;;;3.78;67.07;99895.31;10346222;28;20049;-70
2021/01/07 07:37:58;;;;;;;20.27;15.25;;;;;;;3.72;66.50;99900.94;10340452;28;20616;-69
2021/01/07 07:43:00;;;;;;;22.98;15.52;;;;;;;3.73;67.10;99900.00;10340924;28;20050;-70
2021/01/07 07:48:02;;;;;;;20.05;15.30;;;;;;;3.79;66.86;99904.91;10331087;28;20054;-70
2021/01/07 07:53:07;;;;;;;23.02;16.13;;;;;;;3.86;66.60;99910.69;10344927;28;20839;-71
2021/01/07 07:58:14;;;;;;;22.67;14.90;;;;;;;3.88;66.33;99909.63;10366161;28;20108;-70
2021/01/07 08:03:29;;;;;;;20.83;15.27;;;;;;;3.89;66.43;99913.97;10368312;28;20049;-70
2021/01/07 08:08:33;;;;;;;21.85;16.23;;;;;;;3.91;66.79;99920.94;10338642;28;20069;-70
2021/01/07 08:13:34;;;;;;;22.45;14.50;;;;;;;3.82;67.11;99923.16;10335444;28;20092;-69
2021/01/07 08:18:36;;;;;;;18.73;14.70;;;;;;;3.67;67.99;99932.78;10339322;28;20057;-70
2021/01/07 08:23:37;;;;;;;20.55;14.73;;;;;;;3.57;68.58;99926.34;10340884;28;20673;-70
2021/01/07 08:28:44;;;;;;;21.05;15.75;;;;;;;3.66;68.33;99936.38;10325877;28;20214;-68
2021/01/07 08:33:50;;;;;;;21.20;15.13;;;;;;;3.68;68.02;99938.91;10321803;28;20073;-69
2021/01/07 08:38:53;;;;;;;21.52;13.80;;;;;;;3.73;67.86;99926.34;10323713;28;20116;-69
2021/01/07 08:43:56;;;;;;;18.25;13.70;;;;;;;3.82;67.98;99930.22;10323197;28;20046;-69
2021/01/07 08:49:16;;;;;;;19.27;13.45;;;;;;;3.77;67.48;99935.75;10320273;28;20124;-69
2021/01/07 08:54:22;;;;;;;18.27;13.80;;;;;;;3.76;67.72;99935.84;10327475;28;20496;-69
2021/01/07 08:59:27;;;;;;;19.48;13.18;;;;;;;3.75;68.53;99942.03;10324235;28;20053;-72
2021/01/07 09:04:28;;;;;;;18.73;13.63;;;;;;;3.52;69.22;99934.50;10341732;28;20081;-70
2021/01/07 09:09:40;;;;;;;21.50;15.50;;;;;;;3.47;69.69;99941.81;10328710;28;20064;-69
2021/01/07 09:14:46;;;;;;;18.13;13.93;;;;;;;3.54;69.69;99937.91;10322852;28;21818;-69
2021/01/07 09:19:48;;;;;;;19.52;14.98;;;;;;;3.55;70.06;99949.28;10323219;28;20046;-69
2021/01/07 09:24:51;;;;;;;20.73;13.68;;;;;;;3.63;69.14;99946.22;10357762;28;20066;-68
2021/01/07 09:29:52;;;;;;;17.48;12.93;;;;;;;3.70;68.85;99944.94;10324094;28;20050;-69
2021/01/07 09:34:53;;;;;;;17.58;12.25;;;;;;;3.63;69.09;99943.56;10337443;28;20073;-68
2021/01/07 09:39:55;;;;;;;20.85;14.50;;;;;;;3.51;69.07;99938.09;10314339;28;20206;-69
2021/01/07 09:44:56;;;;;;;19.80;13.90;;;;;;;3.60;68.57;99941.13;10337579;28;20145;-68
2021/01/07 09:49:58;;;;;;;18.77;13.75;;;;;;;3.55;69.23;99938.75;10330548;28;20053;-69
2021/01/07 09:55:00;;;;;;;19.90;14.30;;;;;;;3.65;69.57;99939.09;10331194;28;20100;-68
2021/01/07 10:00:06;;;;;;;20.90;13.77;;;;;;;3.78;68.83;99931.31;10353676;28;20050;-68
2021/01/07 10:05:11;;;;;;;16.58;13.20;;;;;;;3.88;68.90;99927.22;10354197;28;20081;-69
2021/01/07 10:10:13;;;;;;;20.05;12.95;;;;;;;3.90;68.58;99933.25;10328537;28;20053;-69
2021/01/07 10:15:16;;;;;;;18.70;12.90;;;;;;;3.92;68.44;99928.75;10341087;28;20046;-70
2021/01/07 10:20:18;;;;;;;18.58;12.93;;;;;;;4.03;68.96;99922.84;10329708;28;20164;-68
2021/01/07 10:25:20;;;;;;;19.58;13.30;;;;;;;3.91;67.94;99913.88;10323447;28;20089;-70
2021/01/07 10:30:24;;;;;;;17.80;12.80;;;;;;;3.85;68.50;99909.81;10345439;28;20060;-70
2021/01/07 10:35:27;;;;;;;16.30;12.32;;;;;;;3.83;67.74;99911.69;10345720;28;20046;-68
2021/01/07 10:40:33;;;;;;;16.17;11.88;;;;;;;3.64;68.04;99906.63;10325228;28;21153;-70
2021/01/07 10:45:36;;;;;;;18.60;13.00;;;;;;;3.79;67.69;99904.91;10323632;28;20061;-69
2021/01/07 10:50:39;;;;;;;16.40;12.48;;;;;;;3.94;66.73;99899.69;10325376;28;20050;-69
2021/01/07 10:55:53;;;;;;;15.55;12.13;;;;;;;3.85;66.55;99895.81;10330283;28;20567;-69
2021/01/07 11:01:12;;;;;;;21.40;17.63;;;;;;;3.65;67.35;99891.72;10329189;28;20053;-69
2021/01/07 11:06:19;;;;;;;16.23;11.48;;;;;;;3.74;67.06;99888.53;10328524;28;20050;-69
2021/01/07 11:11:23;;;;;;;14.65;11.65;;;;;;;3.63;66.92;99881.25;10321977;28;20108;-69
2021/01/07 11:16:36;;;;;;;16.05;11.40;;;;;;;3.64;66.51;99869.78;10327511;28;20216;-70
2021/01/07 11:21:43;;;;;;;15.05;10.43;;;;;;;3.56;65.94;99861.50;10324707;28;20137;-70
2021/01/07 11:26:46;;;;;;;16.85;11.13;;;;;;;3.50;66.61;99860.06;10323820;28;20050;-70
2021/01/07 11:31:48;;;;;;;14.43;10.43;;;;;;;3.70;65.94;99856.25;10321736;28;20073;-70
2021/01/07 11:37:14;;;;;;;15.65;12.27;;;;;;;3.96;66.17;99842.50;10319100;28;20058;-70
2021/01/07 11:42:32;;;;;;;15.57;11.30;;;;;;;4.10;66.39;99846.94;10322940;28;20281;-70
2021/01/07 11:47:44;;;;;;;15.23;10.98;;;;;;;3.83;66.08;99837.13;10352018;28;20614;-71
2021/01/07 11:52:45;;;;;;;22.40;19.45;;;;;;;3.77;66.33;99827.81;10324813;28;20496;-72
2021/01/07 11:57:47;;;;;;;13.95;10.77;;;;;;;3.69;66.49;99814.25;10345685;28;20503;-70
2021/01/07 12:02:50;;;;;;;19.90;11.10;;;;;;;3.71;66.66;99821.13;10362285;28;20050;-69
2021/01/07 12:08:03;;;;;;;15.93;11.50;;;;;;;3.77;66.86;99804.13;10321783;28;20137;-70
2021/01/07 12:13:29;;;;;;;14.85;11.60;;;;;;;3.70;66.17;99805.41;10320173;28;20050;-71
2021/01/07 12:18:31;;;;;;;17.65;11.30;;;;;;;3.76;66.85;99805.03;10333653;28;20099;-70
2021/01/07 12:23:35;;;;;;;14.98;10.25;;;;;;;3.71;66.35;99793.94;10331537;28;20060;-71
2021/01/07 12:28:37;;;;;;;14.38;10.65;;;;;;;3.72;66.53;99788.59;10319962;28;20824;-69
2021/01/07 12:34:07;;;;;;;13.98;10.18;;;;;;;3.76;66.65;99799.78;10322149;28;20053;-68
2021/01/07 12:39:29;;;;;;;15.70;10.43;;;;;;;3.91;66.03;99787.47;10322469;28;20104;-71
2021/01/07 12:44:32;;;;;;;14.80;10.63;;;;;;;4.02;66.15;99781.56;10323310;28;20057;-70
2021/01/07 12:49:35;;;;;;;14.48;10.02;;;;;;;4.32;64.95;99785.88;10326438;28;20077;-69
2021/01/07 12:54:37;;;;;;;16.52;10.73;;;;;;;4.39;64.55;99781.94;10320343;28;20081;-70
2021/01/07 13:00:03;;;;;;;15.30;10.27;;;;;;;4.58;63.84;99771.94;10326048;28;20093;-71
2021/01/07 13:05:31;;;;;;;12.50;9.55;;;;;;;4.38;63.10;99769.69;10316546;28;20046;-70
2021/01/07 13:10:36;;;;;;;13.23;10.15;;;;;;;4.32;63.98;99775.34;10320727;28;20065;-71
2021/01/07 13:15:40;;;;;;;;;;;;;;;4.68;63.64;99771.34;10324035;28;20054;-70
2021/01/07 13:20:42;;;;;;;13.45;9.07;;;;;;;4.95;61.22;99769.59;10322135;28;20084;-71
2021/01/07 13:25:44;;;;;;;11.93;9.73;;;;;;;4.83;61.37;99775.63;10335429;28;20050;-71
2021/01/07 13:30:46;;;;;;;12.00;8.43;;;;;;;4.81;61.79;99774.91;10334707;28;20128;-71
2021/01/07 13:35:51;;;;;;;12.65;8.68;;;;;;;4.77;60.97;99766.34;10336021;28;20050;-70
2021/01/07 13:41:01;;;;;;;12.15;8.55;;;;;;;4.58;62.03;99777.22;10364058;28;20054;-70
2021/01/07 13:46:05;;;;;;;10.13;8.07;;;;;;;4.27;62.86;99772.16;10330520;28;20058;-68
2021/01/07 13:51:10;;;;;;;10.70;7.97;;;;;;;4.22;63.35;99783.00;10332298;28;20148;-70
2021/01/07 13:56:11;;;;;;;11.98;7.95;;;;;;;4.20;63.57;99772.56;10340863;28;20081;-71
2021/01/07 14:01:13;;;;;;;12.15;8.70;;;;;;;4.02;64.22;99787.69;10363413;28;20737;-71
2021/01/07 14:06:18;;;;;;;10.32;7.50;;;;;;;3.94;64.93;99783.81;10337007;28;20061;-71
2021/01/07 14:11:25;;;;;;;13.18;9.43;;;;;;;3.86;65.83;99782.50;10330932;28;20352;-71
2021/01/07 14:16:26;;;;;;;12.65;9.65;;;;;;;3.81;66.07;99763.47;10350123;28;20819;-70
2021/01/07 14:21:32;;;;;;;10.90;8.68;;;;;;;4.06;66.79;99776.00;10336284;28;20565;-70
2021/01/07 14:26:34;;;;;;;13.88;9.77;;;;;;;3.91;67.11;99781.38;10326232;28;20061;-71
2021/01/07 14:31:37;;;;;;;12.02;9.50;;;;;;;3.88;67.15;99785.88;10328938;28;20135;-70
2021/01/07 14:36:42;;;;;;;13.27;9.50;;;;;;;3.87;68.32;99780.69;10323233;28;20545;-70
2021/01/07 14:41:43;;;;;;;12.68;8.75;;;;;;;3.94;67.86;99782.03;10342125;28;20428;-70
2021/01/07 14:46:46;;;;;;;11.45;8.45;;;;;;;4.02;68.43;99784.19;10323502;28;20151;-68
2021/01/07 14:51:57;;;;;;;12.43;9.15;;;;;;;3.85;68.03;99777.31;10326961;28;20126;-70
2021/01/07 14:57:09;;;;;;;15.07;9.15;;;;;;;3.77;68.22;99785.69;10328662;28;20163;-69
2021/01/07 15:02:27;;;;;;;15.38;9.05;;;;;;;3.79;67.66;99786.44;10326262;28;20129;-70
2021/01/07 15:07:35;;;;;;;11.60;8.05;;;;;;;3.83;68.81;99790.59;10328159;28;20237;-70
2021/01/07 15:12:38;;;;;;;12.27;9.43;;;;;;;3.79;67.91;99788.22;10328818;28;20046;-73
2021/01/07 15:17:51;;;;;;;13.05;9.85;;;;;;;3.79;68.50;99783.81;10316769;28;20058;-71
2021/01/07 15:22:58;;;;;;;11.70;8.60;;;;;;;3.81;68.23;99789.81;10320990;28;20069;-70
2021/01/07 15:28:13;;;;;;;11.90;8.57;;;;;;;3.82;68.70;99788.88;10341960;28;20116;-70
2021/01/07 15:33:33;;;;;;;10.97;7.73;;;;;;;3.92;69.03;99783.06;10321780;28;20120;-69
2021/01/07 15:38:48;;;;;;;10.45;8.07;;;;;;;3.89;68.95;99790.22;10322817;28;20137;-70
2021/01/07 15:43:59;;;;;;;11.60;8.63;;;;;;;3.65;70.40;99783.78;10324076;28;22302;-70
2021/01/07 15:49:25;;;;;;;10.43;8.00;;;;;;;3.69;69.87;99777.38;10339481;28;20061;-70
2021/01/07 15:54:43;;;;;;;9.27;7.10;;;;;;;3.50;70.91;99786.38;10325526;28;20100;-70
2021/01/07 16:00:03;;;;;;;11.77;8.25;;;;;;;3.26;71.32;99775.50;10340353;28;20058;-71
2021/01/07 16:05:08;;;;;;;9.70;6.78;;;;;;;3.25;71.67;99783.47;10347534;28;20061;-70
2021/01/07 16:10:10;;;;;;;9.68;7.25;;;;;;;3.41;72.27;99778.16;10343285;28;20058;-70
2021/01/07 16:15:12;;;;;;;12.43;8.05;;;;;;;3.50;71.86;99782.91;10324748;28;20050;-71
2021/01/07 16:20:15;;;;;;;10.75;7.82;;;;;;;3.50;72.00;99789.00;10320048;28;20064;-71
2021/01/07 16:25:38;;;;;;;8.55;6.70;;;;;;;3.30;72.35;99791.94;10322422;28;20103;-70
2021/01/07 16:30:41;;;;;;;10.40;7.63;;;;;;;3.40;72.56;99787.00;10325271;28;21459;-70
2021/01/07 16:35:43;;;;;;;10.27;7.20;;;;;;;3.38;73.36;99784.47;10318970;28;20066;-70
2021/01/07 16:40:45;;;;;;;9.82;7.60;;;;;;;3.39;73.20;99783.50;10363617;22;20135;-54
2021/01/07 16:45:46;;;;;;;9.65;7.22;;;;;;;3.37;73.28;99788.03;10343269;28;20519;-54
2021/01/07 16:50:47;;;;;;;9.93;7.30;;;;;;;3.35;73.30;99790.75;10315635;28;20051;-57
2021/01/07 16:55:49;;;;;;;8.90;6.60;;;;;;;3.38;73.32;99799.38;10322466;28;20050;-57
2021/01/07 17:00:50;;;;;;;9.90;7.05;;;;;;;3.36;73.82;99779.28;10318551;28;20057;-56
2021/01/07 17:05:51;;;;;;;9.27;7.43;;;;;;;3.54;74.07;99784.41;10318569;28;20065;-57
2021/01/07 17:10:52;;;;;;;11.50;8.13;;;;;;;3.50;73.50;99794.28;10319509;28;20131;-56
2021/01/07 17:15:54;;;;;;;8.68;7.13;;;;;;;3.35;74.74;99789.91;10317333;28;20042;-56
2021/01/07 17:20:55;;;;;;;10.98;8.38;;;;;;;3.33;75.63;99786.50;10318924;28;20052;-55
2021/01/07 17:25:56;;;;;;;9.52;7.93;;;;;;;3.22;76.68;99799.44;10319132;28;20691;-56
2021/01/07 17:30:57;;;;;;;11.55;8.30;;;;;;;3.07;77.63;99791.47;10318696;28;20088;-56
2021/01/07 17:35:59;;;;;;;10.55;7.93;;;;;;;2.92;78.81;99787.09;10320389;28;21214;-56
2021/01/07 17:41:00;;;;;;;10.25;8.23;;;;;;;2.90;79.30;99788.94;10315780;28;20049;-56
2021/01/07 17:46:02;;;;;;;11.23;7.65;;;;;;;3.08;79.25;99793.19;10320301;28;20053;-56
2021/01/07 17:51:04;;;;;;;10.43;8.32;;;;;;;3.02;78.53;99783.00;10319276;28;20062;-55
2021/01/07 17:56:14;;;;;;;11.10;8.60;;;;;;;3.11;79.04;99790.38;10316348;28;20274;-54
2021/01/07 18:01:16;;;;;;;13.63;9.63;;;;;;;3.10;78.72;99788.66;10322037;28;20922;-58
2021/01/07 18:06:17;;;;;;;12.05;8.95;;;;;;;2.90;79.85;99783.69;10318560;28;20053;-55
2021/01/07 18:11:19;;;;;;;15.52;10.07;;;;;;;2.95;79.93;99789.53;10319606;28;20104;-55
2021/01/07 18:16:34;;;;;;;10.73;8.80;;;;;;;2.88;80.11;99785.56;10318013;28;20506;-55
2021/01/07 18:21:36;;;;;;;12.50;9.60;;;;;;;2.98;79.88;99790.22;10319565;28;20690;-57
2021/01/07 18:26:37;;;;;;;15.55;10.27;;;;;;;2.97;80.03;99792.94;10322726;28;20050;-55
2021/01/07 18:31:38;;;;;;;12.43;9.75;;;;;;;2.97;80.17;99785.91;10322718;28;20541;-55
2021/01/07 18:36:40;;;;;;;12.55;10.55;;;;;;;2.91;79.54;99780.13;10322083;28;20046;-55
2021/01/07 18:41:44;;;;;;;14.55;10.45;;;;;;;2.81;80.20;99770.13;10321685;28;20089;-55
2021/01/07 18:46:49;;;;;;;12.73;9.85;;;;;;;2.80;80.54;99783.38;10320075;28;20056;-56
2021/01/07 18:51:51;;;;;;;11.57;9.07;;;;;;;2.76;80.84;99787.97;10319637;28;20053;-56
2021/01/07 18:56:53;;;;;;;12.52;9.82;;;;;;;2.63;81.51;99781.69;10321082;28;20066;-56
2021/01/07 19:01:54;;;;;;;14.05;11.02;;;;;;;2.67;82.87;99788.44;10318201;28;20108;-56
2021/01/07 19:06:55;;;;;;;15.88;11.02;;;;;;;3.11;83.93;99787.75;10318078;28;20391;-57
2021/01/07 19:11:57;;;;;;;13.80;9.73;;;;;;;3.46;81.36;99787.47;10314412;28;20058;-57
2021/01/07 19:16:59;;;;;;;12.15;9.77;;;;;;;3.09;79.71;99789.63;10318059;28;20442;-56
2021/01/07 19:22:00;;;;;;;13.98;9.77;;;;;;;2.97;80.42;99795.56;10317917;28;20156;-56
2021/01/07 19:27:04;;;;;;;12.02;10.00;;;;;;;2.60;81.61;99793.19;10319760;28;20049;-55
2021/01/07 19:32:08;;;;;;;14.73;11.00;;;;;;;2.54;82.51;99795.28;10317062;28;20057;-56
2021/01/07 19:37:09;;;;;;;16.33;11.38;;;;;;;2.78;81.74;99791.34;10312663;28;20057;-57
2021/01/07 19:42:14;;;;;;;11.80;9.63;;;;;;;2.80;81.02;99784.19;10316832;28;20562;-55
2021/01/07 19:47:17;;;;;;;14.32;12.25;;;;;;;2.90;80.83;99799.44;10314674;28;20438;-56
2021/01/07 19:52:18;;;;;;;12.90;10.63;;;;;;;2.77;81.26;99800.16;10311286;28;20227;-56
2021/01/07 19:57:19;;;;;;;12.48;10.02;;;;;;;2.79;80.93;99782.53;10315487;28;20042;-56
2021/01/07 20:02:20;;;;;;;12.68;9.30;;;;;;;2.86;81.08;99795.31;10317244;28;20053;-57
2021/01/07 20:07:22;;;;;;;14.00;9.43;;;;;;;2.80;81.08;99797.34;10316584;28;20053;-61
2021/01/07 20:12:23;;;;;;;14.73;11.02;;;;;;;2.86;80.81;99797.94;10314720;28;20053;-55
2021/01/07 20:17:24;;;;;;;13.60;9.13;;;;;;;2.69;81.64;99797.09;10312800;28;20092;-54
2021/01/07 20:22:26;;;;;;;11.55;9.77;;;;;;;2.67;81.70;99809.47;10315316;28;20054;-57
2021/01/07 20:27:27;;;;;;;12.05;9.43;;;;;;;2.73;81.75;99803.91;10315617;28;20238;-55
2021/01/07 20:32:28;;;;;;;12.82;9.48;;;;;;;2.75;81.71;99802.03;10315147;28;20088;-56
2021/01/07 20:37:30;;;;;;;12.77;9.20;;;;;;;3.13;82.86;99806.91;10313330;28;20053;-55
2021/01/07 20:42:31;;;;;;;13.13;9.27;;;;;;;3.25;81.57;99767.69;10304497;28;20054;-59
2021/01/07 20:47:32;;;;;;;10.55;8.95;;;;;;;3.31;79.68;99794.47;10313307;28;20557;-57
2021/01/07 20:52:40;;;;;;;10.82;8.55;;;;;;;3.25;78.91;99804.53;10311968;28;20604;-55
2021/01/07 20:57:59;;;;;;;13.68;10.05;;;;;;;2.99;80.08;99797.16;10313174;28;20046;-55
2021/01/07 21:03:16;;;;;;;12.80;9.35;;;;;;;3.04;80.32;99810.06;10313299;28;20528;-55
2021/01/07 21:08:17;;;;;;;12.00;9.45;;;;;;;2.86;80.96;99803.22;10309517;28;20116;-57
2021/01/07 21:13:19;;;;;;;11.38;8.88;;;;;;;2.52;81.15;99768.28;10316415;28;20644;-55
2021/01/07 21:18:20;;;;;;;11.50;8.52;;;;;;;2.74;81.42;99796.84;10313161;28;20112;-56
2021/01/07 21:23:21;;;;;;;10.68;8.27;;;;;;;2.88;81.00;99796.06;10310379;28;20057;-55
2021/01/07 21:28:38;;;;;;;10.52;8.55;;;;;;;2.95;80.78;99794.81;10312176;28;20712;-56
2021/01/07 21:33:39;;;;;;;10.73;8.80;;;;;;;2.98;80.35;99799.88;10310324;28;20070;-57
2021/01/07 21:38:42;;;;;;;11.27;8.45;;;;;;;3.05;80.10;99792.50;10311957;28;20062;-56
2021/01/07 21:43:43;;;;;;;9.57;7.60;;;;;;;2.99;80.43;99793.72;10318233;28;20054;-60
2021/01/07 21:48:45;;;;;;;10.98;8.23;;;;;;;3.01;79.95;99781.31;10315909;28;20128;-57
2021/01/07 21:53:46;;;;;;;10.73;8.10;;;;;;;2.94;80.13;99785.22;10316841;28;20114;-54
2021/01/07 21:58:47;;;;;;;9.80;7.85;;;;;;;2.90;79.73;99791.56;10315588;28;20070;-56
2021/01/07 22:03:49;;;;;;;14.23;12.77;;;;;;;2.93;79.90;99783.53;10317319;28;21212;-55
2021/01/07 22:08:53;;;;;;;9.77;8.27;;;;;;;2.89;79.60;99792.53;10315982;28;20064;-57
2021/01/07 22:13:54;;;;;;;11.07;8.77;;;;;;;2.70;80.10;99776.91;10315680;28;20151;-57
2021/01/07 22:18:55;;;;;;;11.38;8.15;;;;;;;2.64;80.45;99772.84;10316363;28;20095;-56
2021/01/07 22:23:57;;;;;;;9.95;8.27;;;;;;;2.72;79.77;99781.16;10317184;28;21174;-55
2021/01/07 22:28:59;;;;;;;10.90;7.97;;;;;;;2.73;79.56;99780.25;10315524;28;20495;-56
2021/01/07 22:34:00;;;;;;;12.52;8.15;;;;;;;2.59;80.40;99777.53;10315472;28;20054;-55
2021/01/07 22:39:05;;;;;;;10.07;8.38;;;;;;;2.59;80.31;99775.72;10331874;28;20104;-54
2021/01/07 22:44:12;;;;;;;10.30;7.60;;;;;;;2.50;80.07;99786.75;10355258;22;20050;-73
2021/01/07 22:49:14;;;;;;;8.50;6.85;;;;;;;2.53;80.41;99780.47;10352044;28;20045;-73
2021/01/07 22:54:15;;;;;;;10.40;7.90;;;;;;;2.59;79.76;99780.16;10360340;28;20099;-71
2021/01/07 22:59:16;;;;;;;9.55;7.43;;;;;;;2.54;79.67;99771.66;10383326;28;20077;-73
2021/01/07 23:04:18;;;;;;;10.27;7.72;;;;;;;2.62;79.12;99779.97;10370637;28;20045;-71
2021/01/07 23:09:19;;;;;;;8.98;7.13;;;;;;;2.60;78.64;99777.44;10367700;28;20133;-72
2021/01/07 23:14:20;;;;;;;9.60;6.80;;;;;;;2.59;78.66;99780.16;10375437;28;20057;-71
2021/01/07 23:19:21;;;;;;;7.72;6.28;;;;;;;2.47;78.82;99772.00;10375720;28;20294;-74
2021/01/07 23:24:23;;;;;;;8.52;6.50;;;;;;;2.54;78.79;99782.16;10371326;28;20538;-71
2021/01/07 23:29:24;;;;;;;10.80;7.13;;;;;;;2.53;78.81;99786.56;10358935;28;20054;-72